Time;durP1;ratioP1;P1;durP2;ratioP2;P2;SDS_P1;SDS_P2;PMS_P1;PMS_P2;Temp;Humidity;BMP_temperature;BMP_pressure;BME280_temperature;BME280_humidity;BME280_pressure;Samples;Min_cycle;Max_cycle;Signal;HPM_P1;HPM_P2
2023/07/06 00:02:34;0.00;0.00;0.62;0.00;0.00;0.62;2.97;2.00;;;28.90;23.50;;;;;;2236269;62;20399;-62
2023/07/06 00:05:22;0.00;0.00;0.62;0.00;0.00;0.62;2.90;1.90;;;28.90;23.50;;;;;;2235799;62;20897;-58
2023/07/06 00:08:07;0.00;0.00;0.62;0.00;0.00;0.62;2.53;1.83;;;28.90;23.50;;;;;;2236163;62;20369;-62
2023/07/06 00:10:52;0.00;0.00;0.62;0.00;0.00;0.62;3.37;2.13;;;28.90;23.50;;;;;;2232880;62;20426;-62
2023/07/06 00:13:40;0.00;0.00;0.62;0.00;0.00;0.62;3.53;2.33;;;28.90;23.50;;;;;;2235067;62;20413;-60
2023/07/06 00:16:27;0.00;0.00;0.62;0.00;0.00;0.62;3.00;2.07;;;28.90;23.50;;;;;;2236148;62;20410;-60
2023/07/06 00:19:12;0.00;0.00;0.62;0.00;0.00;0.62;2.57;2.10;;;28.90;23.50;;;;;;2235752;62;20863;-58
2023/07/06 00:21:57;0.00;0.00;0.62;0.00;0.00;0.62;2.27;1.73;;;28.90;23.50;;;;;;2235431;61;20953;-59
2023/07/06 00:24:46;0.00;0.00;0.62;0.00;0.00;0.62;3.20;2.20;;;28.90;23.50;;;;;;2236522;62;20390;-58
2023/07/06 00:27:31;0.00;0.00;0.62;0.00;0.00;0.62;2.87;2.10;;;28.90;23.50;;;;;;2236388;62;20423;-61
2023/07/06 00:30:18;0.00;0.00;0.62;0.00;0.00;0.62;4.43;2.00;;;28.90;23.50;;;;;;2232918;62;20409;-59
2023/07/06 00:33:06;0.00;0.00;0.62;0.00;0.00;0.62;2.53;1.83;;;28.80;23.40;;;;;;2233936;62;20406;-58
2023/07/06 00:35:51;0.00;0.00;0.62;0.00;0.00;0.62;2.97;2.13;;;28.90;23.50;;;;;;2235847;62;20422;-55
2023/07/06 00:38:36;0.00;0.00;0.62;0.00;0.00;0.62;3.40;1.97;;;28.80;23.40;;;;;;2236528;62;20926;-57
2023/07/06 00:41:21;0.00;0.00;0.62;0.00;0.00;0.62;2.60;1.80;;;28.90;23.50;;;;;;2233654;62;20495;-57
2023/07/06 00:44:47;0.00;0.00;0.62;0.00;0.00;0.62;2.80;1.90;;;28.80;23.90;;;;;;2232422;62;20430;-60
2023/07/06 00:47:39;0.00;0.00;0.62;0.00;0.00;0.62;2.90;1.73;;;28.80;23.40;;;;;;2233746;62;20378;-59
2023/07/06 00:50:28;0.00;0.00;0.62;0.00;0.00;0.62;3.50;2.00;;;28.80;23.40;;;;;;2235520;62;20423;-59
2023/07/06 00:53:18;0.00;0.00;0.62;0.00;0.00;0.62;2.40;1.67;;;28.80;23.40;;;;;;2233217;62;20375;-62
2023/07/06 00:56:04;0.00;0.00;0.62;0.00;0.00;0.62;2.83;1.93;;;28.80;23.50;;;;;;2236665;62;20362;-61
2023/07/06 00:58:53;0.00;0.00;0.62;0.00;0.00;0.62;2.80;2.00;;;28.80;23.50;;;;;;2232238;62;20387;-57
2023/07/06 01:01:43;0.00;0.00;0.62;0.00;0.00;0.62;2.40;1.57;;;28.80;23.50;;;;;;2233590;62;20949;-61
2023/07/06 01:04:30;0.00;0.00;0.62;0.00;0.00;0.62;2.03;1.53;;;28.80;23.50;;;;;;2232807;62;20964;-61
2023/07/06 01:07:22;0.00;0.00;0.62;0.00;0.00;0.62;2.77;1.90;;;28.80;23.50;;;;;;2236434;62;20476;-63
2023/07/06 01:10:09;0.00;0.00;0.62;0.00;0.00;0.62;1.90;1.60;;;28.80;23.50;;;;;;2232978;62;20410;-60
2023/07/06 01:12:53;0.00;0.00;0.62;0.00;0.00;0.62;2.10;1.70;;;28.70;23.40;;;;;;2232675;62;20366;-61
2023/07/06 01:15:48;0.00;0.00;0.62;0.00;0.00;0.62;2.83;1.80;;;28.80;23.50;;;;;;2236382;62;20371;-60
2023/07/06 01:18:46;0.00;0.00;0.62;0.00;0.00;0.62;3.00;1.80;;;28.70;23.50;;;;;;2236338;62;20362;-57
2023/07/06 01:21:41;0.00;0.00;0.62;0.00;0.00;0.62;2.20;1.73;;;28.70;23.50;;;;;;2235981;62;20374;-60
2023/07/06 01:24:53;0.00;0.00;0.62;0.00;0.00;0.62;3.23;1.90;;;28.80;23.50;;;;;;2233240;62;20441;-55
2023/07/06 01:27:59;0.00;0.00;0.62;0.00;0.00;0.62;3.73;1.60;;;28.70;23.60;;;;;;2235654;62;20374;-61
2023/07/06 01:31:06;0.00;0.00;0.62;0.00;0.00;0.62;2.83;1.90;;;28.70;23.50;;;;;;2233363;62;20363;-56
2023/07/06 01:33:57;0.00;0.00;0.62;0.00;0.00;0.62;2.17;1.83;;;28.70;23.50;;;;;;2232956;62;20421;-62
2023/07/06 01:36:49;0.00;0.00;0.62;0.00;0.00;0.62;2.00;1.60;;;28.70;23.60;;;;;;2233043;62;20803;-61
2023/07/06 01:39:33;0.00;0.00;0.62;0.00;0.00;0.62;2.73;2.10;;;28.70;23.60;;;;;;2236029;62;20381;-61
2023/07/06 01:42:26;0.00;0.00;0.62;0.00;0.00;0.62;2.20;1.73;;;28.70;23.60;;;;;;2235786;62;20370;-58
2023/07/06 01:45:18;0.00;0.00;0.62;0.00;0.00;0.62;2.97;1.43;;;28.60;23.50;;;;;;2233152;62;20957;-61
2023/07/06 01:48:07;0.00;0.00;0.62;0.00;0.00;0.62;2.33;1.50;;;28.60;23.60;;;;;;2236434;62;20366;-61
2023/07/06 01:51:06;0.00;0.00;0.62;0.00;0.00;0.62;2.27;1.60;;;28.70;23.70;;;;;;2235524;62;20366;-61
2023/07/06 01:53:59;0.00;0.00;0.62;0.00;0.00;0.62;2.23;1.60;;;28.70;23.70;;;;;;2236406;62;20415;-61
2023/07/06 01:56:49;0.00;0.00;0.62;0.00;0.00;0.62;1.80;1.23;;;28.70;23.70;;;;;;2235562;62;20370;-58
2023/07/06 01:59:37;0.00;0.00;0.62;0.00;0.00;0.62;2.20;1.80;;;28.70;23.70;;;;;;2232842;62;20370;-60
2023/07/06 02:02:23;0.00;0.00;0.62;0.00;0.00;0.62;2.83;1.83;;;28.60;23.70;;;;;;2233362;62;20761;-61
2023/07/06 02:05:09;0.00;0.00;0.62;0.00;0.00;0.62;2.57;1.67;;;28.60;23.70;;;;;;2232394;62;20415;-59
2023/07/06 02:07:55;0.00;0.00;0.62;0.00;0.00;0.62;2.17;1.53;;;28.60;23.70;;;;;;2236327;62;20420;-62
2023/07/06 02:10:39;0.00;0.00;0.62;0.00;0.00;0.62;2.73;1.80;;;28.60;23.70;;;;;;2236233;62;20413;-59
2023/07/06 02:13:24;0.00;0.00;0.62;0.00;0.00;0.62;1.90;1.53;;;28.60;23.70;;;;;;2232759;62;20842;-61
2023/07/06 02:16:09;0.00;0.00;0.62;0.00;0.00;0.62;2.00;1.70;;;28.60;23.70;;;;;;2233253;62;20909;-58
2023/07/06 02:18:56;0.00;0.00;0.62;0.00;0.00;0.62;2.53;1.90;;;28.60;23.70;;;;;;2232194;62;20407;-62
2023/07/06 02:21:41;0.00;0.00;0.62;0.00;0.00;0.62;2.10;1.70;;;28.60;23.70;;;;;;2233119;62;20884;-62
2023/07/06 02:24:27;0.00;0.00;0.62;0.00;0.00;0.62;1.77;1.40;;;28.60;23.70;;;;;;2236310;62;20454;-59
2023/07/06 02:27:12;0.00;0.00;0.62;0.00;0.00;0.62;1.90;1.47;;;28.60;23.80;;;;;;2232472;62;20407;-59
2023/07/06 02:29:57;0.00;0.00;0.62;0.00;0.00;0.62;2.00;1.50;;;28.50;23.70;;;;;;2235844;62;20414;-59
2023/07/06 02:32:42;0.00;0.00;0.62;0.00;0.00;0.62;1.80;1.50;;;28.60;23.80;;;;;;2233267;62;20430;-62
2023/07/06 02:35:28;0.00;0.00;0.62;0.00;0.00;0.62;2.47;1.97;;;28.60;23.80;;;;;;2232781;62;20463;-61
2023/07/06 02:38:13;0.00;0.00;0.62;0.00;0.00;0.62;2.30;1.80;;;28.60;23.80;;;;;;2236350;62;20378;-61
2023/07/06 02:41:04;0.00;0.00;0.62;0.00;0.00;0.62;1.90;1.63;;;28.60;23.80;;;;;;2235906;62;20815;-61
2023/07/06 02:43:48;0.00;0.00;0.62;0.00;0.00;0.62;2.43;1.50;;;28.60;23.80;;;;;;2236169;62;20391;-61
2023/07/06 02:46:33;0.00;0.00;0.62;0.00;0.00;0.62;1.80;1.60;;;28.60;23.80;;;;;;2236495;62;20366;-59
2023/07/06 02:49:18;0.00;0.00;0.62;0.00;0.00;0.62;2.93;1.93;;;28.50;23.80;;;;;;2235093;62;20816;-61
2023/07/06 02:52:04;0.00;0.00;0.62;0.00;0.00;0.62;2.00;1.60;;;28.50;23.80;;;;;;2236107;62;20374;-59
2023/07/06 02:54:49;0.00;0.00;0.62;0.00;0.00;0.62;2.00;1.43;;;28.50;23.80;;;;;;2236325;62;20434;-61
2023/07/06 02:57:39;0.00;0.00;0.62;0.00;0.00;0.62;1.90;1.50;;;28.50;23.80;;;;;;2232210;62;20366;-58
2023/07/06 03:00:24;0.00;0.00;0.62;0.00;0.00;0.62;2.37;1.60;;;28.50;24.40;;;;;;2235960;62;20688;-58
2023/07/06 03:03:09;0.00;0.00;0.62;0.00;0.00;0.62;2.73;1.63;;;28.50;23.80;;;;;;2235874;62;20382;-56
2023/07/06 03:05:53;0.00;0.00;0.62;0.00;0.00;0.62;1.83;1.27;;;28.50;23.80;;;;;;2236282;62;20782;-59
2023/07/06 03:08:38;0.00;0.00;0.62;0.00;0.00;0.62;1.90;1.40;;;28.50;23.80;;;;;;2232718;62;20358;-61
2023/07/06 03:11:23;0.00;0.00;0.62;0.00;0.00;0.62;2.50;1.90;;;28.50;23.80;;;;;;2235442;62;20386;-59
2023/07/06 03:14:10;0.00;0.00;0.62;0.00;0.00;0.62;2.10;1.60;;;28.50;23.80;;;;;;2235923;62;20386;-62
2023/07/06 03:16:55;0.00;0.00;0.62;0.00;0.00;0.62;1.90;1.50;;;28.50;23.90;;;;;;2233211;62;20426;-59
2023/07/06 03:19:41;0.00;0.00;0.62;0.00;0.00;0.62;2.07;1.50;;;28.50;24.40;;;;;;2234758;62;20366;-58
2023/07/06 03:22:27;0.00;0.00;0.62;0.00;0.00;0.62;1.97;1.40;;;28.50;23.90;;;;;;2233204;62;20770;-56
2023/07/06 03:28:08;0.00;0.00;0.62;0.00;0.00;0.62;2.00;1.60;;;28.50;23.90;;;;;;2233789;62;20391;-63
2023/07/06 03:30:58;0.00;0.00;0.62;0.00;0.00;0.62;2.93;2.13;;;28.50;23.90;;;;;;2229055;62;20368;-61
2023/07/06 03:33:45;0.00;0.00;0.62;0.00;0.00;0.62;2.83;1.70;;;28.50;23.90;;;;;;2231266;62;20423;-57
2023/07/06 03:36:33;0.00;0.00;0.62;0.00;0.00;0.62;1.70;1.23;;;28.40;23.90;;;;;;2231807;62;20950;-61
2023/07/06 03:39:18;0.00;0.00;0.62;0.00;0.00;0.62;2.17;1.77;;;28.40;23.90;;;;;;2228675;62;20999;-58
2023/07/06 03:42:03;0.00;0.00;0.62;0.00;0.00;0.62;2.03;1.63;;;28.40;23.90;;;;;;2231376;62;20886;-61
2023/07/06 03:44:48;0.00;0.00;0.62;0.00;0.00;0.62;2.00;1.30;;;28.40;23.90;;;;;;2231913;62;20820;-59
2023/07/06 03:47:35;0.00;0.00;0.62;0.00;0.00;0.62;1.93;1.50;;;28.40;24.00;;;;;;2231708;62;20962;-61
2023/07/06 03:50:22;0.00;0.00;0.62;0.00;0.00;0.62;1.90;1.47;;;28.40;24.00;;;;;;2231840;62;20426;-58
2023/07/06 03:53:07;0.00;0.00;0.62;0.00;0.00;0.62;1.90;1.60;;;28.40;24.00;;;;;;2232343;62;20363;-58
2023/07/06 03:55:53;0.00;0.00;0.62;0.00;0.00;0.62;2.00;1.40;;;28.40;24.00;;;;;;2231356;62;20379;-59
2023/07/06 03:58:38;0.00;0.00;0.62;0.00;0.00;0.62;1.93;1.60;;;28.40;24.00;;;;;;2232473;62;20422;-60
2023/07/06 04:01:24;0.00;0.00;0.62;0.00;0.00;0.62;2.20;1.80;;;28.40;24.00;;;;;;2232791;62;20372;-55
2023/07/06 04:04:10;0.00;0.00;0.62;0.00;0.00;0.62;3.37;2.07;;;28.40;24.10;;;;;;2231889;62;20434;-59
2023/07/06 04:06:55;0.00;0.00;0.62;0.00;0.00;0.62;2.10;1.53;;;28.40;24.10;;;;;;2232900;62;20410;-58
2023/07/06 04:09:40;0.00;0.00;0.62;0.00;0.00;0.62;2.90;1.77;;;28.40;24.10;;;;;;2231920;62;20404;-55
2023/07/06 04:12:25;0.00;0.00;0.62;0.00;0.00;0.62;3.10;2.13;;;28.40;24.60;;;;;;2232814;62;20371;-59
2023/07/06 04:17:53;0.00;0.00;0.62;0.00;0.00;0.62;3.07;2.10;;;28.40;24.10;;;;;;2230254;62;20483;-57
2023/07/06 04:20:40;0.00;0.00;0.62;0.00;0.00;0.62;1.97;1.70;;;28.40;24.10;;;;;;2228639;62;20417;-58
2023/07/06 04:23:24;0.00;0.00;0.62;0.00;0.00;0.62;2.73;2.27;;;28.40;24.10;;;;;;2228672;62;20405;-60
2023/07/06 04:26:10;0.00;0.00;0.62;0.00;0.00;0.62;3.30;1.87;;;28.40;24.10;;;;;;2224965;62;20507;-60
2023/07/06 04:28:55;0.00;0.00;0.62;0.00;0.00;0.62;3.27;2.50;;;28.40;24.10;;;;;;2228700;62;20579;-61
2023/07/06 04:31:40;0.00;0.00;0.62;0.00;0.00;0.62;3.20;2.50;;;28.40;24.10;;;;;;2228119;62;20371;-62
2023/07/06 04:34:24;0.00;0.00;0.62;0.00;0.00;0.62;3.13;2.83;;;28.40;24.10;;;;;;2228512;62;20601;-61
2023/07/06 04:37:11;0.00;0.00;0.62;0.00;0.00;0.62;4.50;3.13;;;28.40;24.10;;;;;;2228860;62;20500;-59
2023/07/06 04:39:55;0.00;0.00;0.62;0.00;0.00;0.62;3.73;3.30;;;28.40;24.10;;;;;;2227642;62;20368;-60
2023/07/06 04:42:40;0.00;0.00;0.62;0.00;0.00;0.62;3.90;2.90;;;28.30;24.50;;;;;;2229284;62;20467;-58
2023/07/06 04:45:26;0.00;0.00;0.62;0.00;0.00;0.62;3.37;3.00;;;28.30;24.00;;;;;;2228790;62;20427;-62
2023/07/06 04:48:12;0.00;0.00;0.62;0.00;0.00;0.62;3.90;3.43;;;28.30;24.00;;;;;;2228165;62;20429;-61
2023/07/06 04:50:56;0.00;0.00;0.62;0.00;0.00;0.62;5.50;3.90;;;28.30;24.00;;;;;;2228853;62;20368;-58
2023/07/06 04:53:43;0.00;0.00;0.62;0.00;0.00;0.62;5.27;4.77;;;28.30;24.00;;;;;;2228325;62;20420;-62
2023/07/06 04:56:28;0.00;0.00;0.62;0.00;0.00;0.62;5.07;4.13;;;28.30;24.00;;;;;;2228568;62;20423;-61
2023/07/06 04:59:13;0.00;0.00;0.62;0.00;0.00;0.62;4.87;4.37;;;28.30;24.00;;;;;;2228244;62;20451;-57
2023/07/06 05:01:57;0.00;0.00;0.62;0.00;0.00;0.62;6.20;4.60;;;28.30;24.00;;;;;;2228074;62;20412;-60
2023/07/06 05:04:42;0.00;0.00;0.62;0.00;0.00;0.62;5.23;4.73;;;28.30;24.00;;;;;;2228551;62;20510;-60
2023/07/06 05:07:26;0.00;0.00;0.62;0.00;0.00;0.62;4.50;4.10;;;28.30;24.00;;;;;;2228648;62;20428;-60
2023/07/06 05:10:13;0.00;0.00;0.62;0.00;0.00;0.62;5.10;4.50;;;28.30;24.00;;;;;;2227357;62;20416;-58
2023/07/06 05:12:58;0.00;0.00;0.62;0.00;0.00;0.62;6.50;5.63;;;28.30;24.00;;;;;;2228534;62;20372;-66
2023/07/06 05:15:43;0.00;0.00;0.62;0.00;0.00;0.62;5.60;4.97;;;28.30;24.00;;;;;;2228892;62;20365;-58
2023/07/06 05:18:29;0.00;0.00;0.62;0.00;0.00;0.62;5.97;5.23;;;28.30;24.00;;;;;;2224900;62;20825;-59
2023/07/06 05:21:14;0.00;0.00;0.62;0.00;0.00;0.62;6.10;4.97;;;28.30;24.00;;;;;;2228728;62;20396;-61
2023/07/06 05:23:59;0.00;0.00;0.62;0.00;0.00;0.62;6.40;5.80;;;28.30;24.00;;;;;;2224862;62;20404;-58
2023/07/06 05:26:45;0.00;0.00;0.62;0.00;0.00;0.62;6.53;5.93;;;28.30;24.00;;;;;;2228707;62;20820;-60
2023/07/06 05:29:29;0.00;0.00;0.62;0.00;0.00;0.62;5.80;5.20;;;28.30;24.00;;;;;;2228591;62;20369;-58
2023/07/06 05:32:14;0.00;0.00;0.62;0.00;0.00;0.62;6.30;5.70;;;28.30;24.00;;;;;;2228099;62;20834;-59
2023/07/06 05:34:59;0.00;0.00;0.62;0.00;0.00;0.62;5.87;5.30;;;28.30;24.00;;;;;;2228607;62;20501;-60
2023/07/06 05:37:43;0.00;0.00;0.62;0.00;0.00;0.62;5.70;5.10;;;28.30;24.00;;;;;;2228630;62;20907;-59
2023/07/06 05:40:28;0.00;0.00;0.62;0.00;0.00;0.62;5.40;4.90;;;28.30;24.00;;;;;;2227686;62;20424;-63
2023/07/06 05:43:18;0.00;0.00;0.62;0.00;0.00;0.62;5.53;4.90;;;28.30;24.00;;;;;;2228372;62;20524;-59
2023/07/06 05:46:03;0.00;0.00;0.62;0.00;0.00;0.62;6.33;5.00;;;28.30;24.00;;;;;;2228187;62;20423;-60
2023/07/06 05:48:47;0.00;0.00;0.62;0.00;0.00;0.62;5.20;4.43;;;28.30;24.00;;;;;;2228112;62;20408;-62
2023/07/06 05:51:32;0.00;0.00;0.62;0.00;0.00;0.62;5.07;4.53;;;28.30;24.00;;;;;;2228574;62;20456;-58
2023/07/06 05:54:16;0.00;0.00;0.62;0.00;0.00;0.62;5.30;4.80;;;28.30;24.00;;;;;;2227814;62;20384;-59
2023/07/06 05:57:02;0.00;0.00;0.62;0.00;0.00;0.62;4.70;4.20;;;28.30;24.00;;;;;;2228557;62;20364;-60
2023/07/06 05:59:50;0.00;0.00;0.62;0.00;0.00;0.62;4.90;4.33;;;28.30;24.00;;;;;;2228282;62;20419;-58
2023/07/06 06:02:36;0.00;0.00;0.62;0.00;0.00;0.62;3.97;3.57;;;28.30;24.00;;;;;;2227880;62;20373;-59
2023/07/06 06:05:20;0.00;0.00;0.62;0.00;0.00;0.62;4.33;3.60;;;28.30;24.00;;;;;;2228396;62;20388;-60
2023/07/06 06:08:05;0.00;0.00;0.62;0.00;0.00;0.62;4.13;3.70;;;28.30;24.00;;;;;;2228134;62;20384;-61
2023/07/06 06:10:50;0.00;0.00;0.62;0.00;0.00;0.62;4.37;3.97;;;28.30;24.00;;;;;;2228433;62;20404;-59
2023/07/06 06:13:35;0.00;0.00;0.62;0.00;0.00;0.62;5.27;4.30;;;28.30;24.00;;;;;;2225664;62;20379;-62
2023/07/06 06:16:21;0.00;0.00;0.62;0.00;0.00;0.62;4.37;3.97;;;28.30;24.00;;;;;;2227540;62;20431;-66
2023/07/06 06:19:07;0.00;0.00;0.62;0.00;0.00;0.62;5.83;4.30;;;28.30;24.00;;;;;;2228128;62;20457;-61
2023/07/06 06:21:53;0.00;0.00;0.62;0.00;0.00;0.62;4.23;3.73;;;28.30;24.00;;;;;;2228293;62;20380;-58
2023/07/06 06:24:38;0.00;0.00;0.62;0.00;0.00;0.62;3.97;3.40;;;28.30;24.00;;;;;;2227713;62;20947;-61
2023/07/06 06:27:23;0.00;0.00;0.62;0.00;0.00;0.62;5.17;4.53;;;28.30;24.00;;;;;;2228615;62;20420;-60
2023/07/06 06:30:09;0.00;0.00;0.62;0.00;0.00;0.62;3.80;3.40;;;28.30;24.10;;;;;;2227632;62;20787;-62
2023/07/06 06:32:57;0.00;0.00;0.62;0.00;0.00;0.62;3.80;3.20;;;28.40;24.10;;;;;;2228417;62;20389;-61
2023/07/06 06:35:42;0.00;0.00;0.62;0.00;0.00;0.62;6.23;3.30;;;28.40;24.20;;;;;;2228482;62;20447;-54
2023/07/06 06:38:26;0.00;0.00;0.62;0.00;0.00;0.62;4.07;3.40;;;28.40;24.10;;;;;;2227184;62;20852;-57
2023/07/06 06:41:11;0.00;0.00;0.62;0.00;0.00;0.62;3.50;3.20;;;28.40;24.20;;;;;;2228454;62;20368;-59
2023/07/06 06:43:56;0.00;0.00;0.62;0.00;0.00;0.62;3.40;3.10;;;28.40;24.20;;;;;;2228355;62;20425;-60
2023/07/06 06:46:41;0.00;0.00;0.62;0.00;0.00;0.62;3.40;3.00;;;28.40;24.20;;;;;;2224699;62;20417;-58
2023/07/06 06:49:28;0.00;0.00;0.62;0.00;0.00;0.62;3.80;3.40;;;28.40;24.20;;;;;;2228078;62;20396;-61
2023/07/06 06:52:13;0.00;0.00;0.62;0.00;0.00;0.62;4.07;3.70;;;28.40;24.20;;;;;;2227972;62;20388;-58
2023/07/06 06:55:13;0.00;0.00;0.62;0.00;0.00;0.62;3.70;3.20;;;28.40;24.20;;;;;;2282256;48;20417;-61
2023/07/06 06:57:58;0.00;0.00;0.62;0.00;0.00;0.62;3.40;2.80;;;28.40;24.20;;;;;;2237864;62;20386;-59
2023/07/06 07:00:44;0.00;0.00;0.62;0.00;0.00;0.62;4.60;3.60;;;28.40;24.20;;;;;;2235617;62;20407;-57
2023/07/06 07:03:29;0.00;0.00;0.62;0.00;0.00;0.62;3.07;2.77;;;28.40;24.30;;;;;;2233093;62;20406;-62
2023/07/06 07:06:17;0.00;0.00;0.62;0.00;0.00;0.62;3.07;2.77;;;28.40;24.30;;;;;;2236289;62;20933;-59
2023/07/06 07:09:02;0.00;0.00;0.62;0.00;0.00;0.62;3.13;2.83;;;28.40;24.30;;;;;;2235080;62;20418;-61
2023/07/06 07:11:47;0.00;0.00;0.62;0.00;0.00;0.62;3.20;2.90;;;28.40;24.30;;;;;;2236431;62;20762;-58
2023/07/06 07:14:32;0.00;0.00;0.62;0.00;0.00;0.62;3.00;2.70;;;28.40;24.30;;;;;;2235871;62;20390;-60
2023/07/06 07:17:16;0.00;0.00;0.62;0.00;0.00;0.62;3.17;2.87;;;28.40;24.40;;;;;;2235970;62;20807;-59
2023/07/06 07:20:01;0.00;0.00;0.62;0.00;0.00;0.62;3.47;3.17;;;28.40;24.30;;;;;;2235613;62;20410;-59
2023/07/06 07:22:47;0.00;0.00;0.62;0.00;0.00;0.62;3.50;3.20;;;28.40;24.40;;;;;;2235315;62;20821;-55
2023/07/06 07:25:32;0.00;0.00;0.62;0.00;0.00;0.62;3.83;3.20;;;28.40;24.40;;;;;;2236216;62;20400;-60
2023/07/06 07:28:17;0.00;0.00;0.62;0.00;0.00;0.62;3.10;2.80;;;28.40;24.40;;;;;;2235971;62;20765;-63
2023/07/06 07:31:02;0.00;0.00;0.62;0.00;0.00;0.62;3.17;2.33;;;28.40;24.40;;;;;;2235276;62;20807;-59
2023/07/06 07:33:47;0.00;0.00;0.62;0.00;0.00;0.62;3.07;2.27;;;28.40;24.40;;;;;;2235996;62;20440;-61
2023/07/06 07:36:33;0.00;0.00;0.62;0.00;0.00;0.62;3.47;3.17;;;28.40;24.40;;;;;;2235743;62;20427;-59
2023/07/06 07:39:19;0.00;0.00;0.62;0.00;0.00;0.62;2.80;2.50;;;28.40;24.40;;;;;;2235123;62;20905;-62
2023/07/06 07:42:05;0.00;0.00;0.62;0.00;0.00;0.62;4.20;2.40;;;28.40;24.40;;;;;;2236121;62;20410;-61
2023/07/06 07:44:50;0.00;0.00;0.62;0.00;0.00;0.62;3.63;2.50;;;28.40;24.40;;;;;;2235245;62;20419;-55
2023/07/06 07:47:37;0.00;0.00;0.62;0.00;0.00;0.62;3.10;2.80;;;28.40;24.50;;;;;;2235951;62;20370;-58
2023/07/06 07:50:24;0.00;0.00;0.62;0.00;0.00;0.62;2.67;2.40;;;28.40;24.50;;;;;;2235735;62;20805;-58
2023/07/06 07:53:10;0.00;0.00;0.62;0.00;0.00;0.62;3.67;3.03;;;28.40;24.50;;;;;;2235293;62;20902;-58
2023/07/06 07:55:56;0.00;0.00;0.62;0.00;0.00;0.62;2.83;2.53;;;28.40;24.50;;;;;;2235883;62;20374;-65
2023/07/06 07:58:43;0.00;0.00;0.62;0.00;0.00;0.62;3.30;3.00;;;28.40;24.50;;;;;;2235542;62;20430;-63
2023/07/06 08:01:28;0.00;0.00;0.62;0.00;0.00;0.62;3.50;3.20;;;28.40;24.50;;;;;;2235684;62;20434;-59
2023/07/06 08:04:14;0.00;0.00;0.62;0.00;0.00;0.62;3.10;2.70;;;28.40;24.50;;;;;;2235957;62;20417;-56
2023/07/06 08:06:59;0.00;0.00;0.62;0.00;0.00;0.62;3.77;2.80;;;28.40;24.50;;;;;;2235179;62;20410;-60
2023/07/06 08:09:43;0.00;0.00;0.62;0.00;0.00;0.62;3.20;2.67;;;28.40;24.50;;;;;;2235656;62;20414;-59
2023/07/06 08:12:31;0.00;0.00;0.62;0.00;0.00;0.62;2.87;2.43;;;28.40;24.50;;;;;;2235932;62;20370;-62
2023/07/06 08:15:16;0.00;0.00;0.62;0.00;0.00;0.62;3.20;2.47;;;28.40;24.50;;;;;;2235080;62;20467;-62
2023/07/06 08:18:03;0.00;0.00;0.62;0.00;0.00;0.62;3.03;2.57;;;28.40;24.50;;;;;;2236221;62;20414;-61
2023/07/06 08:20:53;0.00;0.00;0.62;0.00;0.00;0.62;3.20;2.50;;;28.40;24.50;;;;;;2235695;62;20371;-63
2023/07/06 08:23:45;0.00;0.00;0.62;0.00;0.00;0.62;3.20;2.73;;;28.40;24.60;;;;;;2235560;62;20446;-61
2023/07/06 08:26:31;0.00;0.00;0.62;0.00;0.00;0.62;3.50;2.57;;;28.40;24.60;;;;;;2236146;62;20363;-57
2023/07/06 08:29:17;0.00;0.00;0.62;0.00;0.00;0.62;3.13;2.57;;;28.40;24.60;;;;;;2234644;62;20415;-56
2023/07/06 08:32:03;0.00;0.00;0.62;0.00;0.00;0.62;3.23;2.93;;;28.40;24.60;;;;;;2236037;62;20793;-56
2023/07/06 08:34:48;0.00;0.00;0.62;0.00;0.00;0.62;2.83;2.53;;;28.40;24.60;;;;;;2235798;62;20491;-60
2023/07/06 08:37:33;0.00;0.00;0.62;0.00;0.00;0.62;3.17;2.87;;;28.40;24.60;;;;;;2235310;62;20378;-57
2023/07/06 08:40:20;0.00;0.00;0.62;0.00;0.00;0.62;3.83;2.40;;;28.40;24.60;;;;;;2235745;62;20362;-61
2023/07/06 08:43:14;0.00;0.00;0.62;0.00;0.00;0.62;2.37;2.10;;;28.40;24.70;;;;;;2235739;62;20365;-60
2023/07/06 08:46:04;0.00;0.00;0.62;0.00;0.00;0.62;4.33;2.67;;;28.40;24.60;;;;;;2236236;62;20921;-59
2023/07/06 08:48:53;0.00;0.00;0.62;0.00;0.00;0.62;2.33;2.13;;;28.40;24.70;;;;;;2236182;62;20371;-57
2023/07/06 08:51:38;0.00;0.00;0.62;0.00;0.00;0.62;2.87;2.47;;;28.40;24.70;;;;;;2235893;62;20413;-59
2023/07/06 08:54:25;0.00;0.00;0.62;0.00;0.00;0.62;2.37;2.00;;;28.40;24.70;;;;;;2236727;62;20390;-61
2023/07/06 08:57:15;0.00;0.00;0.62;0.00;0.00;0.62;2.20;2.00;;;28.40;24.70;;;;;;2236654;62;20445;-56
2023/07/06 09:00:00;0.00;0.00;0.62;0.00;0.00;0.62;2.70;2.23;;;28.40;24.70;;;;;;2235619;62;20430;-58
2023/07/06 09:02:48;0.00;0.00;0.62;0.00;0.00;0.62;3.07;1.93;;;28.40;24.70;;;;;;2236350;62;20910;-61
2023/07/06 09:05:35;0.00;0.00;0.62;0.00;0.00;0.62;2.63;2.10;;;28.50;24.70;;;;;;2236135;62;20809;-57
2023/07/06 09:08:20;0.00;0.00;0.62;0.00;0.00;0.62;3.20;2.50;;;28.50;24.80;;;;;;2236211;62;20426;-59
2023/07/06 09:11:05;0.00;0.00;0.62;0.00;0.00;0.62;2.80;2.20;;;28.50;24.80;;;;;;2236504;62;20377;-58
2023/07/06 09:13:55;0.00;0.00;0.62;0.00;0.00;0.62;3.30;2.57;;;28.50;24.80;;;;;;2235547;62;20406;-58
2023/07/06 09:16:48;0.00;0.00;0.62;0.00;0.00;0.62;2.23;2.00;;;28.50;24.80;;;;;;2236604;62;20397;-56
2023/07/06 09:19:34;0.00;0.00;0.62;0.00;0.00;0.62;3.07;2.43;;;28.40;24.80;;;;;;2236258;62;20362;-60
2023/07/06 09:22:21;0.00;0.00;0.62;0.00;0.00;0.62;2.67;2.20;;;28.50;24.80;;;;;;2236014;62;20695;-59
2023/07/06 09:25:15;0.00;0.00;0.62;0.00;0.00;0.62;3.10;2.80;;;28.50;24.80;;;;;;2236434;62;20398;-58
2023/07/06 09:28:01;0.00;0.00;0.62;0.00;0.00;0.62;3.43;2.23;;;28.50;24.80;;;;;;2236156;62;20370;-60
2023/07/06 09:30:48;0.00;0.00;0.62;0.00;0.00;0.62;2.50;2.17;;;28.50;24.80;;;;;;2236480;62;20410;-61
2023/07/06 09:33:33;0.00;0.00;0.62;0.00;0.00;0.62;2.57;2.23;;;28.50;24.90;;;;;;2236487;62;20382;-58
2023/07/06 09:36:23;0.00;0.00;0.62;0.00;0.00;0.62;3.10;2.80;;;28.50;24.90;;;;;;2235683;62;20374;-56
2023/07/06 09:39:14;0.00;0.00;0.62;0.00;0.00;0.62;3.30;2.10;;;28.50;24.90;;;;;;2236099;62;20467;-60
2023/07/06 09:42:01;0.00;0.00;0.62;0.00;0.00;0.62;3.00;2.43;;;28.50;24.90;;;;;;2236563;62;20466;-60
2023/07/06 09:44:46;0.00;0.00;0.62;0.00;0.00;0.62;2.40;1.93;;;28.50;25.40;;;;;;2235983;62;20812;-57
2023/07/06 09:47:33;0.00;0.00;0.62;0.00;0.00;0.62;3.60;2.30;;;28.50;24.90;;;;;;2236578;62;20406;-61
2023/07/06 09:50:22;0.00;0.00;0.62;0.00;0.00;0.62;2.50;2.13;;;28.50;24.90;;;;;;2235507;62;20429;-57
2023/07/06 09:53:28;0.00;0.00;0.62;0.00;0.00;0.62;2.37;2.00;;;28.50;24.90;;;;;;2236189;62;20845;-61
2023/07/06 09:56:13;0.00;0.00;0.62;0.00;0.00;0.62;2.80;2.20;;;28.50;24.90;;;;;;2236369;62;20375;-60
2023/07/06 09:59:00;0.00;0.00;0.62;0.00;0.00;0.62;2.30;2.10;;;28.60;25.00;;;;;;2235325;62;20362;-61
2023/07/06 10:01:55;0.00;0.00;0.62;0.00;0.00;0.62;2.27;1.97;;;28.60;25.00;;;;;;2236462;62;20398;-58
2023/07/06 10:04:51;0.00;0.00;0.62;0.00;0.00;0.62;2.23;1.60;;;28.60;25.00;;;;;;2235825;62;20441;-62
2023/07/06 10:07:47;0.00;0.00;0.62;0.00;0.00;0.62;2.87;2.17;;;28.60;25.00;;;;;;2236303;62;20900;-61
2023/07/06 10:10:50;0.00;0.00;0.62;0.00;0.00;0.62;4.13;2.40;;;28.60;25.00;;;;;;2235998;62;20910;-61
2023/07/06 10:13:43;0.00;0.00;0.62;0.00;0.00;0.62;2.63;2.07;;;28.60;25.00;;;;;;2235423;62;20386;-59
2023/07/06 10:16:42;0.00;0.00;0.62;0.00;0.00;0.62;2.40;1.90;;;28.60;25.00;;;;;;2236332;62;20371;-59
2023/07/06 10:19:36;0.00;0.00;0.62;0.00;0.00;0.62;2.43;1.83;;;28.60;25.00;;;;;;2235559;62;20537;-60
2023/07/06 10:22:33;0.00;0.00;0.62;0.00;0.00;0.62;3.17;1.93;;;28.60;25.00;;;;;;2236243;62;20427;-59
2023/07/06 10:25:25;0.00;0.00;0.62;0.00;0.00;0.62;1.83;1.60;;;28.60;25.00;;;;;;2236216;62;20422;-59
2023/07/06 10:28:18;0.00;0.00;0.62;0.00;0.00;0.62;2.00;1.73;;;28.60;25.00;;;;;;2235754;62;20382;-62
2023/07/06 10:31:07;0.00;0.00;0.62;0.00;0.00;0.62;1.87;1.60;;;28.60;25.00;;;;;;2236305;62;20414;-62
2023/07/06 10:34:00;0.00;0.00;0.62;0.00;0.00;0.62;2.00;1.77;;;28.60;25.00;;;;;;2236136;62;20389;-60
2023/07/06 10:36:45;0.00;0.00;0.62;0.00;0.00;0.62;2.87;2.07;;;28.70;25.10;;;;;;2236032;62;20498;-61
2023/07/06 10:39:55;0.00;0.00;0.62;0.00;0.00;0.62;2.90;1.60;;;28.70;25.00;;;;;;2235748;62;20789;-58
2023/07/06 10:42:47;0.00;0.00;0.62;0.00;0.00;0.62;2.27;1.77;;;28.70;25.00;;;;;;2235501;62;20374;-59
2023/07/06 10:45:43;0.00;0.00;0.62;0.00;0.00;0.62;2.30;1.87;;;28.70;25.00;;;;;;2236224;62;20443;-61
2023/07/06 10:48:31;0.00;0.00;0.62;0.00;0.00;0.62;2.00;1.50;;;28.70;25.10;;;;;;2236059;62;20905;-59
2023/07/06 10:51:24;0.00;0.00;0.62;0.00;0.00;0.62;2.40;2.03;;;28.70;25.10;;;;;;2235665;62;20369;-58
2023/07/06 10:54:19;0.00;0.00;0.62;0.00;0.00;0.62;3.43;1.63;;;28.70;25.10;;;;;;2236377;62;20387;-60
2023/07/06 10:57:12;0.00;0.00;0.62;0.00;0.00;0.62;1.70;1.30;;;28.70;25.10;;;;;;2235231;62;20369;-58
2023/07/06 11:00:13;0.00;0.00;0.62;0.00;0.00;0.62;1.90;1.50;;;28.80;25.10;;;;;;2235963;62;20905;-59
2023/07/06 11:03:02;0.00;0.00;0.62;0.00;0.00;0.62;2.27;1.40;;;28.80;25.10;;;;;;2236141;62;20377;-61
2023/07/06 11:05:57;0.00;0.00;0.62;0.00;0.00;0.62;1.80;1.40;;;28.80;25.10;;;;;;2235456;61;20858;-59
2023/07/06 11:09:11;0.00;0.00;0.62;0.00;0.00;0.62;2.03;1.60;;;28.80;25.10;;;;;;2235895;62;20366;-59